Time;durP1;ratioP1;P1;durP2;ratioP2;P2;SDS_P1;SDS_P2;PMS_P1;PMS_P2;Temp;Humidity;BMP_temperature;BMP_pressure;BME280_temperature;BME280_humidity;BME280_pressure;Samples;Min_cycle;Max_cycle;Signal;HPM_P1;HPM_P2
2021/10/21 00:01:35;;;;;;;7.22;3.88;;;15.50;99.90;;;;;;5055774;28;20208;-83
2021/10/21 00:04:01;;;;;;;8.20;3.58;;;15.60;99.90;;;;;;5054758;28;20477;-84
2021/10/21 00:06:27;;;;;;;5.65;3.28;;;15.60;99.90;;;;;;5056461;28;20388;-84
2021/10/21 00:08:52;;;;;;;6.20;4.03;;;15.60;99.90;;;;;;5056148;28;20080;-82
2021/10/21 00:11:18;;;;;;;6.38;3.65;;;15.60;99.90;;;;;;5057665;28;20109;-84
2021/10/21 00:13:44;;;;;;;9.38;3.72;;;15.60;99.90;;;;;;5058018;28;20024;-83
2021/10/21 00:16:09;;;;;;;9.00;3.88;;;15.60;99.90;;;;;;5058591;28;20033;-83
2021/10/21 00:18:35;;;;;;;8.18;4.10;;;15.70;99.90;;;;;;5056767;28;20377;-85
2021/10/21 00:21:00;;;;;;;8.18;4.00;;;15.70;99.90;;;;;;5055778;28;20063;-83
2021/10/21 00:23:26;;;;;;;8.68;4.00;;;15.70;99.90;;;;;;5055092;28;20111;-83
2021/10/21 00:25:52;;;;;;;10.60;4.57;;;15.60;99.90;;;;;;5053753;28;20405;-83
2021/10/21 00:28:18;;;;;;;11.93;4.40;;;15.60;99.90;;;;;;5053754;28;20025;-83
2021/10/21 00:30:43;;;;;;;9.10;4.28;;;15.60;99.90;;;;;;5054528;28;20028;-83
2021/10/21 00:33:09;;;;;;;9.32;4.20;;;15.50;99.90;;;;;;5056420;28;20362;-83
2021/10/21 00:35:35;;;;;;;8.85;3.97;;;15.50;99.90;;;;;;5055876;28;20099;-84
2021/10/21 00:38:00;;;;;;;6.88;3.78;;;15.50;99.90;;;;;;5056062;28;20512;-84
2021/10/21 00:40:26;;;;;;;9.38;3.85;;;15.50;99.90;;;;;;5054923;28;20116;-84
2021/10/21 00:42:52;;;;;;;8.20;3.95;;;15.40;99.90;;;;;;5056730;28;20021;-84
2021/10/21 00:45:17;;;;;;;11.00;4.25;;;15.40;99.90;;;;;;5056481;28;20032;-84
2021/10/21 00:47:43;;;;;;;9.98;4.50;;;15.40;99.90;;;;;;5055359;28;20082;-83
2021/10/21 00:50:09;;;;;;;8.77;4.22;;;15.40;99.90;;;;;;5053022;28;20497;-83
2021/10/21 00:52:36;;;;;;;8.10;4.70;;;15.30;99.90;;;;;;5053181;28;20496;-83
2021/10/21 00:55:03;;;;;;;9.05;4.60;;;15.30;99.90;;;;;;5053844;28;20025;-83
2021/10/21 00:57:29;;;;;;;12.82;4.43;;;15.20;99.90;;;;;;5053264;28;20400;-83
2021/10/21 00:59:55;;;;;;;9.23;4.82;;;15.20;99.90;;;;;;5052744;28;20436;-83
2021/10/21 01:02:21;;;;;;;12.90;4.63;;;15.20;99.90;;;;;;5055075;28;20025;-83
2021/10/21 01:04:46;;;;;;;6.85;4.15;;;15.20;99.90;;;;;;5053246;28;20131;-83
2021/10/21 01:07:13;;;;;;;8.23;4.30;;;15.20;99.90;;;;;;5054516;28;20040;-83
2021/10/21 01:09:42;;;;;;;7.05;3.72;;;15.10;99.90;;;;;;5052921;28;20028;-83
2021/10/21 01:12:09;;;;;;;;;;;15.10;99.90;;;;;;5054161;28;20113;-83
2021/10/21 01:14:35;;;;;;;6.70;3.10;;;15.10;99.90;;;;;;5053381;28;19936;-83
2021/10/21 01:17:00;;;;;;;9.07;2.88;;;15.20;99.90;;;;;;5053100;28;20029;-83
2021/10/21 01:19:26;;;;;;;10.23;2.78;;;15.20;99.90;;;;;;5054153;28;20029;-83
2021/10/21 01:21:54;;;;;;;7.03;2.15;;;15.30;99.90;;;;;;5054614;28;20249;-83
2021/10/21 01:24:21;;;;;;;5.82;2.17;;;15.40;99.90;;;;;;5053205;28;20024;-83
2021/10/21 01:26:49;;;;;;;4.25;2.10;;;15.40;99.90;;;;;;5054954;28;20024;-83
2021/10/21 01:29:18;;;;;;;3.60;1.90;;;15.40;99.90;;;;;;5052907;28;20021;-83
2021/10/21 01:31:46;;;;;;;7.40;1.58;;;15.40;99.90;;;;;;5055098;28;20031;-83
2021/10/21 01:34:13;;;;;;;3.50;1.40;;;15.40;99.90;;;;;;5057042;28;20059;-83
2021/10/21 01:36:39;;;;;;;4.13;1.60;;;15.40;99.90;;;;;;5058608;28;20051;-83
2021/10/21 01:39:08;;;;;;;5.53;1.40;;;15.30;99.90;;;;;;5056435;28;20033;-83
2021/10/21 01:41:34;;;;;;;7.30;2.65;;;15.40;99.90;;;;;;5058063;28;20092;-83
2021/10/21 01:44:00;;;;;;;9.77;3.05;;;15.40;99.90;;;;;;5056935;28;20044;-83
2021/10/21 01:46:25;;;;;;;8.90;2.75;;;15.40;99.90;;;;;;5057861;28;20025;-83
2021/10/21 01:48:51;;;;;;;7.30;2.65;;;15.40;99.90;;;;;;5057829;28;20021;-83
2021/10/21 01:51:17;;;;;;;9.85;3.00;;;15.30;99.90;;;;;;5056761;28;20021;-83
2021/10/21 01:53:43;;;;;;;5.72;2.17;;;15.30;99.90;;;;;;5058174;28;20029;-83
2021/10/21 01:56:09;;;;;;;7.75;2.00;;;15.30;99.90;;;;;;5058265;28;20543;-83
2021/10/21 01:58:35;;;;;;;6.28;1.50;;;15.30;99.90;;;;;;5056942;28;20051;-83
2021/10/21 02:01:01;;;;;;;6.07;1.67;;;15.30;99.90;;;;;;5056363;28;20036;-83
2021/10/21 02:03:26;;;;;;;6.40;1.85;;;15.20;99.90;;;;;;5058085;28;20025;-83
2021/10/21 02:05:52;;;;;;;7.57;2.25;;;15.20;99.90;;;;;;5058123;28;20366;-83
2021/10/21 02:08:18;;;;;;;7.68;2.47;;;15.20;99.90;;;;;;5056675;28;20029;-83
2021/10/21 02:10:44;;;;;;;7.50;3.00;;;15.10;99.90;;;;;;5057458;28;20025;-83
2021/10/21 02:13:10;;;;;;;10.27;2.30;;;14.90;99.90;;;;;;5056753;28;20501;-83
2021/10/21 02:15:36;;;;;;;8.10;1.88;;;14.80;99.90;;;;;;5057696;28;20028;-83
2021/10/21 02:18:01;;;;;;;6.90;1.85;;;14.70;99.90;;;;;;5055697;28;20029;-83
2021/10/21 02:20:27;;;;;;;5.28;1.08;;;14.70;99.90;;;;;;5056283;28;20087;-83
2021/10/21 02:22:53;;;;;;;6.68;1.55;;;14.60;99.90;;;;;;5056552;28;20051;-83
2021/10/21 02:25:19;;;;;;;5.03;1.73;;;14.60;99.90;;;;;;5057869;28;20024;-83
2021/10/21 02:27:45;;;;;;;6.13;2.85;;;14.50;99.90;;;;;;5056011;28;20028;-83
2021/10/21 02:30:12;;;;;;;9.93;4.10;;;14.50;99.90;;;;;;5055533;28;20020;-83
2021/10/21 02:32:38;;;;;;;11.00;3.42;;;14.60;99.90;;;;;;5056543;28;20025;-83
2021/10/21 02:35:06;;;;;;;13.40;4.60;;;14.50;99.90;;;;;;5056837;28;20036;-83
2021/10/21 02:37:32;;;;;;;11.15;3.45;;;14.50;99.90;;;;;;5057240;28;20143;-83
2021/10/21 02:39:57;;;;;;;8.65;2.45;;;14.50;99.90;;;;;;5056945;28;20036;-82
2021/10/21 02:42:23;;;;;;;5.50;1.50;;;14.50;99.90;;;;;;5056553;28;20036;-83
2021/10/21 02:44:49;;;;;;;6.30;1.27;;;14.50;99.90;;;;;;5055671;28;20094;-83
2021/10/21 02:47:14;;;;;;;8.88;1.15;;;14.50;99.90;;;;;;5055438;28;20062;-83
2021/10/21 02:49:40;;;;;;;7.28;1.00;;;14.50;99.90;;;;;;5055429;28;20025;-83
2021/10/21 02:52:06;;;;;;;6.60;1.85;;;14.50;99.90;;;;;;5056793;28;20059;-83
2021/10/21 02:54:31;;;;;;;8.50;2.13;;;14.40;99.90;;;;;;5057165;28;20025;-83
2021/10/21 02:56:58;;;;;;;9.90;1.50;;;14.40;99.90;;;;;;5056282;28;20448;-83
2021/10/21 02:59:23;;;;;;;4.05;1.20;;;14.50;99.90;;;;;;5055013;28;20477;-83
2021/10/21 03:01:49;;;;;;;7.80;2.00;;;14.40;99.90;;;;;;5055868;28;20087;-83
2021/10/21 03:04:15;;;;;;;7.43;1.60;;;14.40;99.90;;;;;;5055522;28;20117;-83
2021/10/21 03:06:40;;;;;;;4.30;1.30;;;14.40;99.90;;;;;;5055325;28;20466;-83
2021/10/21 03:09:06;;;;;;;5.55;1.23;;;14.40;99.90;;;;;;5054938;28;20461;-83
2021/10/21 03:11:32;;;;;;;5.25;1.00;;;14.40;99.90;;;;;;5055089;28;20025;-83
2021/10/21 03:13:57;;;;;;;6.18;1.52;;;14.40;99.90;;;;;;5055241;28;20029;-83
2021/10/21 03:16:24;;;;;;;6.75;1.10;;;14.40;99.90;;;;;;5055919;28;20075;-83
2021/10/21 03:18:50;;;;;;;5.18;1.20;;;14.40;99.90;;;;;;5055269;28;21370;-83
2021/10/21 03:21:15;;;;;;;4.68;0.93;;;14.40;99.90;;;;;;5056517;28;20037;-83
2021/10/21 03:23:41;;;;;;;5.05;1.10;;;14.40;99.90;;;;;;5055689;28;20040;-83
2021/10/21 03:26:07;;;;;;;4.82;1.00;;;14.40;99.90;;;;;;5056687;28;20385;-83
2021/10/21 03:28:32;;;;;;;5.10;0.95;;;14.40;99.90;;;;;;5055879;28;20028;-83
2021/10/21 03:30:58;;;;;;;6.38;1.42;;;14.40;99.90;;;;;;5054715;28;20021;-83
2021/10/21 03:33:24;;;;;;;6.22;1.25;;;14.40;99.90;;;;;;5054898;28;20124;-83
2021/10/21 03:35:49;;;;;;;5.78;1.10;;;14.40;99.90;;;;;;5055237;28;20052;-83
2021/10/21 03:38:15;;;;;;;7.28;1.25;;;14.30;99.90;;;;;;5056612;28;20469;-83
2021/10/21 03:40:40;;;;;;;3.63;0.88;;;14.40;99.90;;;;;;5054816;28;20032;-83
2021/10/21 03:43:06;;;;;;;5.07;0.90;;;14.40;99.90;;;;;;5055518;28;20088;-83
2021/10/21 03:45:32;;;;;;;4.05;0.70;;;14.30;99.90;;;;;;5059497;28;20035;-84
2021/10/21 03:47:57;;;;;;;4.85;1.00;;;14.30;99.90;;;;;;5062682;28;20029;-84
2021/10/21 03:50:23;;;;;;;4.95;0.90;;;14.30;99.90;;;;;;5060022;28;20127;-84
2021/10/21 03:52:48;;;;;;;6.65;0.90;;;14.30;99.90;;;;;;5059149;28;20116;-83
2021/10/21 03:55:14;;;;;;;7.57;0.98;;;14.30;99.90;;;;;;5059317;28;20025;-84
2021/10/21 03:57:40;;;;;;;8.02;1.20;;;14.20;99.90;;;;;;5059466;28;20036;-83
2021/10/21 04:00:09;;;;;;;5.47;0.90;;;14.30;99.90;;;;;;5058997;28;20040;-84
2021/10/21 04:02:38;;;;;;;4.72;0.80;;;14.30;99.90;;;;;;5061000;28;20029;-85
2021/10/21 04:05:04;;;;;;;;;;;14.30;99.90;;;;;;5060974;28;20535;-84
2021/10/21 04:07:30;;;;;;;6.05;1.15;;;14.30;99.90;;;;;;5058925;28;19964;-85
2021/10/21 04:09:55;;;;;;;5.30;1.23;;;14.30;99.90;;;;;;5058601;28;20599;-83
2021/10/21 04:12:21;;;;;;;7.15;1.52;;;14.30;99.90;;;;;;5059971;28;20100;-83
2021/10/21 04:14:46;;;;;;;4.93;1.40;;;14.30;99.90;;;;;;5058164;28;20024;-85
2021/10/21 04:17:12;;;;;;;6.35;1.02;;;14.30;99.90;;;;;;5058955;28;20028;-83
2021/10/21 04:19:38;;;;;;;5.35;1.13;;;14.30;99.90;;;;;;5058140;28;20044;-84
2021/10/21 04:22:03;;;;;;;5.47;0.90;;;14.30;99.90;;;;;;5057975;28;20025;-84
2021/10/21 04:24:29;;;;;;;4.75;1.25;;;14.30;99.90;;;;;;5057746;28;20025;-84
2021/10/21 04:26:55;;;;;;;7.18;0.98;;;14.30;99.90;;;;;;5057995;28;20025;-83
2021/10/21 04:29:20;;;;;;;5.05;1.05;;;14.30;99.90;;;;;;5058430;28;20028;-84
2021/10/21 04:31:46;;;;;;;7.30;0.93;;;14.30;99.90;;;;;;5059324;28;20536;-83
2021/10/21 04:34:12;;;;;;;5.57;1.05;;;14.30;99.90;;;;;;5059787;28;20054;-84
2021/10/21 04:36:39;;;;;;;5.32;0.88;;;14.30;99.90;;;;;;5059904;28;20481;-84
2021/10/21 04:39:05;;;;;;;3.50;1.10;;;14.30;99.90;;;;;;5057910;28;20029;-84
2021/10/21 04:41:31;;;;;;;5.05;1.25;;;14.20;99.90;;;;;;5058504;28;20029;-84
2021/10/21 04:43:56;;;;;;;8.50;1.45;;;14.10;99.90;;;;;;5058382;28;20032;-83
2021/10/21 04:46:22;;;;;;;5.90;1.15;;;14.10;99.90;;;;;;5059845;28;20029;-84
2021/10/21 04:48:48;;;;;;;6.43;1.52;;;14.00;99.90;;;;;;5059784;28;20025;-83
2021/10/21 04:51:13;;;;;;;8.05;1.92;;;14.00;99.90;;;;;;5058465;28;20029;-84
2021/10/21 04:53:39;;;;;;;9.63;2.92;;;13.90;99.90;;;;;;5060656;28;20068;-85
2021/10/21 04:56:04;;;;;;;8.48;2.38;;;13.90;99.90;;;;;;5060367;28;20037;-83
2021/10/21 04:58:30;;;;;;;10.75;2.60;;;13.80;99.90;;;;;;5058776;28;20118;-83
2021/10/21 05:00:56;;;;;;;7.85;2.50;;;13.70;99.90;;;;;;5060165;28;20490;-84
2021/10/21 05:03:21;;;;;;;10.48;2.75;;;13.60;99.90;;;;;;5060048;28;20032;-85
2021/10/21 05:05:47;;;;;;;8.30;2.30;;;13.60;99.90;;;;;;5060969;28;20033;-84
2021/10/21 05:08:12;;;;;;;7.13;2.33;;;13.60;99.90;;;;;;5060813;28;20039;-84
2021/10/21 05:10:38;;;;;;;6.07;1.63;;;13.60;99.90;;;;;;5060054;28;20033;-84
2021/10/21 05:13:04;;;;;;;6.85;1.60;;;13.60;99.90;;;;;;5060677;28;20021;-84
2021/10/21 05:15:29;;;;;;;5.78;1.45;;;13.60;99.90;;;;;;5061884;28;20040;-84
2021/10/21 05:17:55;;;;;;;5.53;1.40;;;13.60;99.90;;;;;;5060743;28;20029;-83
2021/10/21 05:20:21;;;;;;;3.45;0.80;;;13.60;99.90;;;;;;5058344;28;20044;-84
2021/10/21 05:22:47;;;;;;;2.88;0.80;;;13.60;99.90;;;;;;5059584;28;20025;-83
2021/10/21 05:25:13;;;;;;;4.28;0.77;;;13.60;99.90;;;;;;5059488;28;20108;-83
2021/10/21 05:27:39;;;;;;;4.53;0.50;;;13.50;99.90;;;;;;5059774;28;20075;-84
2021/10/21 05:30:06;;;;;;;3.67;0.50;;;13.60;99.90;;;;;;5058739;28;20025;-83
2021/10/21 05:32:32;;;;;;;1.85;0.80;;;13.60;99.90;;;;;;5059489;28;20017;-84
2021/10/21 05:34:58;;;;;;;1.15;0.60;;;13.50;99.90;;;;;;5058491;28;20025;-84
2021/10/21 05:37:24;;;;;;;3.17;0.40;;;13.50;99.90;;;;;;5059111;28;20025;-84
2021/10/21 05:39:50;;;;;;;2.05;0.50;;;13.40;99.90;;;;;;5058674;28;20032;-84
2021/10/21 05:42:16;;;;;;;2.08;0.47;;;13.50;99.90;;;;;;5060271;28;20028;-83
2021/10/21 05:44:42;;;;;;;2.78;1.10;;;13.50;99.90;;;;;;5058651;28;20025;-84
2021/10/21 05:47:08;;;;;;;3.10;0.90;;;13.40;99.90;;;;;;5059366;28;20044;-84
2021/10/21 05:49:33;;;;;;;7.15;2.08;;;13.40;99.90;;;;;;5058126;28;20064;-83
2021/10/21 05:51:59;;;;;;;10.43;2.85;;;13.40;99.90;;;;;;5060078;28;20025;-84
2021/10/21 05:54:25;;;;;;;9.02;2.80;;;13.40;99.90;;;;;;5058979;28;20033;-84
2021/10/21 05:56:51;;;;;;;7.25;2.70;;;13.40;99.90;;;;;;5060524;28;20033;-84
2021/10/21 05:59:16;;;;;;;8.85;3.75;;;13.30;99.90;;;;;;5059852;28;20025;-85
2021/10/21 06:01:42;;;;;;;5.97;2.00;;;13.20;99.90;;;;;;5058376;28;20033;-84
2021/10/21 06:04:08;;;;;;;5.88;1.05;;;13.20;99.90;;;;;;5060408;28;20029;-83
2021/10/21 06:06:36;;;;;;;5.05;0.82;;;13.10;99.90;;;;;;5058947;28;20017;-84
2021/10/21 06:09:03;;;;;;;4.93;0.93;;;13.10;99.90;;;;;;5058900;28;20017;-83
2021/10/21 06:11:34;;;;;;;5.78;1.33;;;13.10;99.90;;;;;;5059645;28;20056;-84
2021/10/21 06:14:02;;;;;;;6.18;1.08;;;12.90;99.90;;;;;;5059772;28;20025;-84
2021/10/21 06:16:28;;;;;;;3.83;0.80;;;12.90;99.90;;;;;;5061261;28;20388;-84
2021/10/21 06:18:54;;;;;;;4.47;0.88;;;12.80;99.90;;;;;;5064688;28;20111;-83
2021/10/21 06:21:24;;;;;;;4.47;0.83;;;12.80;99.90;;;;;;5072013;28;20493;-83
2021/10/21 06:23:50;;;;;;;;;;;12.70;99.90;;;;;;5071243;28;20025;-83
2021/10/21 06:26:19;;;;;;;8.57;1.60;;;12.70;99.90;;;;;;5070626;28;19909;-82
2021/10/21 06:28:50;;;;;;;5.80;0.90;;;12.70;99.90;;;;;;5070140;28;20032;-82
2021/10/21 06:31:17;;;;;;;4.17;1.03;;;12.60;99.90;;;;;;5070308;28;20029;-83
2021/10/21 06:33:44;;;;;;;2.20;0.80;;;12.60;99.90;;;;;;5070679;28;20029;-82
2021/10/21 06:36:10;;;;;;;2.80;0.80;;;12.50;99.90;;;;;;5071975;28;20040;-83
2021/10/21 06:38:38;;;;;;;3.70;0.70;;;12.40;99.90;;;;;;5070330;28;20036;-82
2021/10/21 06:41:04;;;;;;;2.97;0.70;;;12.30;99.90;;;;;;5070102;28;20055;-82
2021/10/21 06:43:30;;;;;;;5.10;1.70;;;12.20;99.90;;;;;;5071761;28;20029;-83
2021/10/21 06:45:55;;;;;;;4.73;1.27;;;12.10;99.90;;;;;;5070666;28;20029;-83
2021/10/21 06:48:21;;;;;;;2.53;1.23;;;12.10;99.90;;;;;;5071880;28;20086;-82
2021/10/21 06:50:47;;;;;;;5.60;1.30;;;12.00;99.90;;;;;;5069931;28;20013;-82
2021/10/21 06:53:12;;;;;;;2.57;0.80;;;12.00;99.90;;;;;;5071241;28;20029;-82
2021/10/21 06:55:38;;;;;;;1.63;0.83;;;11.90;99.90;;;;;;5071220;28;20485;-83
2021/10/21 06:58:03;;;;;;;2.30;0.70;;;11.80;99.90;;;;;;5071490;28;20036;-82
2021/10/21 07:00:40;;;;;;;3.07;0.80;;;11.80;99.90;;;;;;5069393;28;20024;-82
2021/10/21 07:03:06;;;;;;;4.53;1.30;;;11.70;99.90;;;;;;5070984;28;20059;-82
2021/10/21 07:05:44;;;;;;;2.33;0.60;;;11.70;99.90;;;;;;5070580;28;20032;-82
2021/10/21 07:08:12;;;;;;;3.83;0.80;;;11.60;99.90;;;;;;5071855;28;20074;-82
2021/10/21 07:10:38;;;;;;;2.07;0.67;;;11.50;99.90;;;;;;5070293;28;20029;-82
2021/10/21 07:13:04;;;;;;;1.17;0.60;;;11.40;99.90;;;;;;5070324;28;20035;-82
2021/10/21 07:15:32;;;;;;;2.17;0.60;;;11.40;99.90;;;;;;5069633;28;20448;-82
2021/10/21 07:17:57;;;;;;;4.07;1.00;;;11.30;99.90;;;;;;5069461;28;20067;-82
2021/10/21 07:20:25;;;;;;;4.63;0.83;;;11.40;99.90;;;;;;5069329;28;20025;-82
2021/10/21 07:22:51;;;;;;;3.20;0.70;;;11.40;99.90;;;;;;5071470;28;20085;-83
2021/10/21 07:25:17;;;;;;;3.10;0.77;;;11.40;99.90;;;;;;5070252;28;20032;-82
2021/10/21 07:27:43;;;;;;;4.20;0.80;;;11.40;99.90;;;;;;5071121;28;20051;-83
2021/10/21 07:30:11;;;;;;;8.23;1.10;;;11.40;99.90;;;;;;5070188;28;20049;-82
2021/10/21 07:32:38;;;;;;;5.57;1.03;;;11.50;99.90;;;;;;5069872;28;20079;-83
2021/10/21 07:35:04;;;;;;;8.90;1.00;;;11.50;99.90;;;;;;5070533;28;20029;-82
2021/10/21 07:37:30;;;;;;;6.63;1.00;;;11.50;99.90;;;;;;5069966;28;20024;-83
2021/10/21 07:39:55;;;;;;;10.30;1.50;;;11.60;99.90;;;;;;5069063;28;20055;-83
2021/10/21 07:42:21;;;;;;;6.93;1.10;;;11.60;99.90;;;;;;5069889;28;20033;-83
2021/10/21 07:44:50;;;;;;;6.93;1.20;;;11.70;99.90;;;;;;5071156;28;20037;-82
2021/10/21 07:47:18;;;;;;;5.90;1.15;;;11.70;99.90;;;;;;5069161;28;20012;-83
2021/10/21 07:49:45;;;;;;;7.72;1.42;;;11.80;99.90;;;;;;5070341;28;20021;-83
2021/10/21 07:52:11;;;;;;;7.23;1.43;;;11.80;99.90;;;;;;5068481;28;20032;-83
2021/10/21 07:54:37;;;;;;;6.97;1.30;;;11.80;99.90;;;;;;5069158;28;20021;-83
2021/10/21 07:57:05;;;;;;;10.97;1.57;;;11.80;99.90;;;;;;5069123;28;20051;-83
2021/10/21 07:59:32;;;;;;;8.17;1.40;;;11.90;99.90;;;;;;5067762;28;20025;-83
2021/10/21 08:01:58;;;;;;;5.87;1.47;;;11.90;99.90;;;;;;5069103;28;20008;-83
2021/10/21 08:04:28;;;;;;;10.73;1.57;;;11.90;99.90;;;;;;5068630;28;20036;-83
2021/10/21 08:06:56;;;;;;;7.23;1.53;;;11.90;99.90;;;;;;5069341;28;20036;-83
2021/10/21 08:09:23;;;;;;;8.57;1.53;;;11.90;99.90;;;;;;5067430;28;20060;-83
2021/10/21 08:11:50;;;;;;;10.20;2.00;;;12.00;99.90;;;;;;5069769;28;20029;-83
2021/10/21 08:14:17;;;;;;;10.17;1.43;;;12.00;99.90;;;;;;5068791;28;20025;-83
2021/10/21 08:16:43;;;;;;;7.17;1.20;;;12.00;99.90;;;;;;5068758;28;20043;-83
2021/10/21 08:19:09;;;;;;;10.07;1.60;;;12.00;99.90;;;;;;5067950;28;20037;-83
2021/10/21 08:21:35;;;;;;;7.67;1.30;;;12.00;99.90;;;;;;5070544;28;20081;-83
2021/10/21 08:24:02;;;;;;;8.53;1.60;;;12.10;99.90;;;;;;5068690;28;20025;-83
2021/10/21 08:26:28;;;;;;;8.20;1.30;;;12.10;99.90;;;;;;5069418;28;20021;-83
2021/10/21 08:28:54;;;;;;;10.87;1.80;;;12.10;99.90;;;;;;5068607;28;20035;-83
2021/10/21 08:31:20;;;;;;;10.37;1.50;;;12.10;99.90;;;;;;5069432;28;20025;-83
2021/10/21 08:33:46;;;;;;;8.70;1.20;;;12.10;99.90;;;;;;5070948;28;20021;-83
2021/10/21 08:36:14;;;;;;;6.57;1.30;;;12.10;99.90;;;;;;5071794;28;20024;-83
2021/10/21 08:38:41;;;;;;;10.65;2.20;;;12.10;99.90;;;;;;5071170;28;20028;-83
2021/10/21 08:41:08;;;;;;;11.37;1.73;;;12.10;99.90;;;;;;5070730;28;20028;-83
2021/10/21 08:43:34;;;;;;;9.03;1.53;;;12.20;99.90;;;;;;5071660;28;20074;-83
2021/10/21 08:46:01;;;;;;;8.70;1.60;;;12.10;99.90;;;;;;5074015;28;20048;-83
2021/10/21 08:48:29;;;;;;;8.77;1.63;;;12.10;99.90;;;;;;5067994;28;20548;-82
2021/10/21 08:50:57;;;;;;;12.83;2.17;;;12.10;99.90;;;;;;5067116;28;20316;-83
2021/10/21 08:53:24;;;;;;;10.20;2.00;;;12.10;99.90;;;;;;5068097;28;20025;-83
2021/10/21 08:55:51;;;;;;;10.33;1.93;;;12.20;99.90;;;;;;5067424;28;20036;-83
2021/10/21 08:58:16;;;;;;;8.63;1.63;;;12.20;99.90;;;;;;5068133;28;20055;-83
2021/10/21 09:00:42;;;;;;;10.87;1.80;;;12.30;99.90;;;;;;5068342;28;20029;-82
2021/10/21 09:03:25;;;;;;;10.30;1.87;;;12.30;99.90;;;;;;5067243;28;20036;-83
2021/10/21 09:05:54;;;;;;;11.87;1.90;;;12.30;99.90;;;;;;5067711;28;20036;-83
2021/10/21 09:08:20;;;;;;;11.00;2.20;;;12.40;99.90;;;;;;5067756;28;20028;-83
2021/10/21 09:10:52;;;;;;;9.67;2.10;;;12.40;99.90;;;;;;5068666;28;20444;-83
2021/10/21 09:13:23;;;;;;;11.77;1.83;;;12.50;99.90;;;;;;5067866;28;20129;-83
2021/10/21 09:15:51;;;;;;;12.70;2.40;;;12.60;99.90;;;;;;5068884;28;20440;-83
2021/10/21 09:18:17;;;;;;;15.13;2.50;;;12.60;99.90;;;;;;5068923;28;20029;-83
2021/10/21 09:20:46;;;;;;;13.13;2.30;;;12.70;99.90;;;;;;5066923;28;20044;-83
2021/10/21 09:23:16;;;;;;;15.70;2.53;;;12.70;99.90;;;;;;5068906;28;20051;-83
2021/10/21 09:25:42;;;;;;;11.60;2.70;;;12.80;99.90;;;;;;5067866;28;20034;-83
2021/10/21 09:28:24;;;;;;;10.85;2.20;;;12.90;99.90;;;;;;5067781;28;20112;-83
2021/10/21 09:31:04;;;;;;;13.63;2.50;;;12.90;99.90;;;;;;5068803;28;20021;-83
2021/10/21 09:33:56;;;;;;;11.82;2.17;;;13.00;99.90;;;;;;5067890;28;20021;-83
2021/10/21 09:36:22;;;;;;;10.82;1.85;;;12.90;99.90;;;;;;5069709;28;20043;-83
2021/10/21 09:38:50;;;;;;;9.67;2.23;;;12.90;99.90;;;;;;5067317;28;20019;-83
2021/10/21 09:41:21;;;;;;;12.90;2.28;;;12.80;99.90;;;;;;5067608;28;20028;-83
2021/10/21 09:43:49;;;;;;;13.10;2.47;;;12.70;99.90;;;;;;5068153;28;20092;-83
2021/10/21 09:46:38;;;;;;;7.55;2.00;;;12.70;99.90;;;;;;5068814;28;20025;-83
2021/10/21 09:49:32;;;;;;;10.00;2.13;;;12.60;99.90;;;;;;5067302;28;20017;-83
2021/10/21 09:51:58;;;;;;;7.63;2.03;;;12.60;99.90;;;;;;5070005;28;20021;-83
2021/10/21 09:54:24;;;;;;;9.02;2.20;;;12.60;99.90;;;;;;5071587;28;20029;-83
2021/10/21 09:57:01;;;;;;;12.97;2.80;;;12.70;99.90;;;;;;5072056;28;20047;-83
2021/10/21 09:59:29;;;;;;;11.13;2.30;;;12.70;99.90;;;;;;5070744;28;20040;-83
2021/10/21 10:02:04;;;;;;;9.10;2.03;;;12.80;99.90;;;;;;5072096;28;20025;-83
2021/10/21 10:04:31;;;;;;;9.65;2.30;;;12.80;99.90;;;;;;5072297;28;20021;-83
2021/10/21 10:06:59;;;;;;;12.38;2.30;;;12.80;99.90;;;;;;5073258;28;20025;-83
2021/10/21 10:09:32;;;;;;;12.20;2.40;;;12.80;99.90;;;;;;5071865;28;20040;-83
2021/10/21 10:12:05;;;;;;;8.20;2.00;;;12.80;99.90;;;;;;5073167;28;20048;-83
2021/10/21 10:14:32;;;;;;;9.60;1.90;;;12.80;99.90;;;;;;5073116;28;20016;-82
2021/10/21 10:17:02;;;;;;;9.47;1.57;;;12.80;99.90;;;;;;5070853;28;20028;-83
2021/10/21 10:19:30;;;;;;;4.85;1.45;;;12.70;99.90;;;;;;5071948;28;20075;-83
2021/10/21 10:21:59;;;;;;;7.18;1.30;;;12.70;99.90;;;;;;5070997;28;20043;-83
2021/10/21 10:24:29;;;;;;;;;;;12.60;99.90;;;;;;5071820;28;20033;-83
2021/10/21 10:26:57;;;;;;;11.63;2.00;;;12.50;99.90;;;;;;5072396;28;19912;-83
2021/10/21 10:29:32;;;;;;;14.63;1.80;;;12.60;99.90;;;;;;5070732;28;20031;-83
2021/10/21 10:32:05;;;;;;;11.13;1.70;;;12.50;99.90;;;;;;5072151;28;20032;-82
2021/10/21 10:34:34;;;;;;;10.40;2.13;;;12.50;99.90;;;;;;5070908;28;20025;-83
2021/10/21 10:37:12;;;;;;;11.95;2.10;;;12.60;99.90;;;;;;5071047;28;20035;-83
2021/10/21 10:39:58;;;;;;;6.70;1.40;;;12.60;99.90;;;;;;5070766;28;20029;-83
2021/10/21 10:42:30;;;;;;;7.50;1.50;;;12.60;99.90;;;;;;5070738;28;20033;-83
2021/10/21 10:44:57;;;;;;;6.07;1.65;;;12.60;99.90;;;;;;5069809;28;20489;-83
2021/10/21 10:47:49;;;;;;;7.70;1.50;;;12.60;99.90;;;;;;5069561;28;20055;-82
2021/10/21 10:50:25;;;;;;;6.97;1.37;;;12.50;99.90;;;;;;5062112;28;20033;-82
2021/10/21 10:52:59;;;;;;;8.00;1.60;;;12.50;99.90;;;;;;5068528;28;20041;-83
2021/10/21 10:55:27;;;;;;;7.37;1.37;;;12.50;99.90;;;;;;5069145;28;20394;-83
2021/10/21 10:57:54;;;;;;;9.00;1.60;;;12.50;99.90;;;;;;5068341;28;20130;-83
2021/10/21 11:00:44;;;;;;;9.00;1.47;;;12.50;99.90;;;;;;5068384;28;20025;-82
2021/10/21 11:03:10;;;;;;;7.60;1.60;;;12.50;99.90;;;;;;5068512;28;20032;-83
2021/10/21 11:05:45;;;;;;;7.83;1.60;;;12.60;99.90;;;;;;5070081;28;20028;-83
2021/10/21 11:08:16;;;;;;;7.70;1.20;;;12.60;99.90;;;;;;5071006;28;20332;-82
2021/10/21 11:10:43;;;;;;;10.50;1.53;;;12.60;99.90;;;;;;5069596;28;20048;-83
2021/10/21 11:13:33;;;;;;;7.57;1.50;;;12.60;99.90;;;;;;5068674;28;20049;-82
2021/10/21 11:15:59;;;;;;;5.23;1.30;;;12.70;99.90;;;;;;5068014;28;20409;-83
2021/10/21 11:18:31;;;;;;;5.45;0.90;;;12.80;99.90;;;;;;5068831;28;20101;-83
2021/10/21 11:20:58;;;;;;;4.33;1.10;;;12.80;99.90;;;;;;5067297;28;20036;-83
2021/10/21 11:23:27;;;;;;;4.53;1.10;;;12.90;99.90;;;;;;5068148;28;20029;-83
2021/10/21 11:25:56;;;;;;;3.88;1.00;;;12.90;99.90;;;;;;5069743;28;20029;-83
2021/10/21 11:28:26;;;;;;;6.18;1.30;;;13.00;99.90;;;;;;5068162;28;20029;-82
2021/10/21 11:30:52;;;;;;;8.07;1.40;;;13.00;99.90;;;;;;5067464;28;20032;-83
2021/10/21 11:33:19;;;;;;;3.33;1.00;;;13.00;99.90;;;;;;5068155;28;20429;-83
2021/10/21 11:35:44;;;;;;;4.70;1.13;;;13.00;99.90;;;;;;5070163;28;20021;-83
2021/10/21 11:38:14;;;;;;;7.73;1.10;;;13.00;99.90;;;;;;5069224;28;20093;-83
2021/10/21 11:40:49;;;;;;;3.95;0.80;;;13.00;99.90;;;;;;5070449;28;20039;-83
2021/10/21 11:43:23;;;;;;;2.72;0.85;;;12.90;99.90;;;;;;5070883;28;20052;-82
2021/10/21 11:46:00;;;;;;;1.70;0.37;;;12.70;99.90;;;;;;5069996;28;20019;-83
2021/10/21 11:48:38;;;;;;;2.40;0.67;;;12.60;99.90;;;;;;5070196;28;20021;-82
2021/10/21 11:51:06;;;;;;;2.13;0.75;;;12.40;99.90;;;;;;5068554;28;20560;-82
2021/10/21 11:53:33;;;;;;;3.83;0.87;;;12.40;99.90;;;;;;5070673;28;20048;-83
2021/10/21 11:55:59;;;;;;;3.13;0.70;;;12.30;99.90;;;;;;5070416;28;20026;-82
2021/10/21 11:58:38;;;;;;;4.13;0.80;;;12.30;99.90;;;;;;5069913;28;20096;-82
2021/10/21 12:01:08;;;;;;;2.67;0.70;;;12.20;99.90;;;;;;5068072;28;20043;-82
2021/10/21 12:03:37;;;;;;;2.73;0.70;;;12.20;99.90;;;;;;5068568;28;20098;-82
2021/10/21 12:06:08;;;;;;;5.77;1.00;;;12.00;99.90;;;;;;5068647;28;20032;-83
2021/10/21 12:08:34;;;;;;;5.17;0.93;;;11.90;99.90;;;;;;5069469;28;20025;-82
2021/10/21 12:11:02;;;;;;;3.63;0.73;;;11.80;99.90;;;;;;5068048;28;20045;-82
2021/10/21 12:13:28;;;;;;;1.90;0.68;;;11.70;99.90;;;;;;5068782;28;20047;-82
2021/10/21 12:15:57;;;;;;;5.27;0.80;;;11.50;99.90;;;;;;5067308;28;20029;-82
2021/10/21 12:18:25;;;;;;;3.92;0.68;;;11.50;99.90;;;;;;5068808;28;20549;-83
2021/10/21 12:20:55;;;;;;;4.53;0.90;;;11.40;99.90;;;;;;5059732;28;20041;-82
2021/10/21 12:23:34;;;;;;;4.20;0.77;;;11.30;99.90;;;;;;5060493;28;20050;-83
2021/10/21 12:26:05;;;;;;;5.45;0.68;;;11.40;99.90;;;;;;5057524;28;20035;-83
2021/10/21 12:28:47;;;;;;;2.00;0.60;;;11.40;99.90;;;;;;5056226;28;20035;-83
2021/10/21 12:31:29;;;;;;;3.10;0.67;;;11.40;99.90;;;;;;5055764;28;20025;-84
2021/10/21 12:34:01;;;;;;;1.40;0.50;;;11.40;99.90;;;;;;5057714;28;20043;-83
2021/10/21 12:36:30;;;;;;;3.50;0.77;;;11.40;99.90;;;;;;5057333;28;20055;-84
2021/10/21 12:39:07;;;;;;;2.67;0.70;;;11.50;99.90;;;;;;5056300;28;20024;-84
2021/10/21 12:41:50;;;;;;;3.87;0.73;;;11.50;99.90;;;;;;5055839;28;20060;-84
2021/10/21 12:44:17;;;;;;;1.80;0.60;;;11.50;99.90;;;;;;5058050;28;20033;-84
2021/10/21 12:46:43;;;;;;;1.57;0.80;;;11.50;99.90;;;;;;5056798;28;20121;-84
2021/10/21 12:49:17;;;;;;;2.67;0.70;;;11.50;99.90;;;;;;5056322;28;20513;-83